sensor_id;sensor_type;location;lat;lon;timestamp;P1;durP1;ratioP1;P2;durP2;ratioP2
8694;SDS011;65580;49.446;6.854;2023-04-28T00:00:39;7.63;;;3.60;;
8694;SDS011;65580;49.446;6.854;2023-04-28T00:04:44;6.53;;;4.13;;
8694;SDS011;65580;49.446;6.854;2023-04-28T00:08:48;6.30;;;3.85;;
8694;SDS011;65580;49.446;6.854;2023-04-28T00:12:51;6.55;;;3.22;;
8694;SDS011;65580;49.446;6.854;2023-04-28T00:16:55;7.20;;;3.67;;
8694;SDS011;65580;49.446;6.854;2023-04-28T00:21:01;14.45;;;6.03;;
8694;SDS011;65580;49.446;6.854;2023-04-28T00:25:04;12.07;;;5.55;;
8694;SDS011;65580;49.446;6.854;2023-04-28T00:29:08;21.33;;;10.93;;
8694;SDS011;65580;49.446;6.854;2023-04-28T00:33:11;9.50;;;5.03;;
8694;SDS011;65580;49.446;6.854;2023-04-28T00:37:17;8.40;;;5.18;;
8694;SDS011;65580;49.446;6.854;2023-04-28T00:41:21;15.90;;;7.47;;
8694;SDS011;65580;49.446;6.854;2023-04-28T00:45:24;14.98;;;7.95;;
8694;SDS011;65580;49.446;6.854;2023-04-28T00:49:27;12.40;;;7.20;;
8694;SDS011;65580;49.446;6.854;2023-04-28T00:53:34;9.77;;;6.03;;
8694;SDS011;65580;49.446;6.854;2023-04-28T00:57:37;10.45;;;5.70;;
8694;SDS011;65580;49.446;6.854;2023-04-28T01:01:41;20.90;;;11.05;;
8694;SDS011;65580;49.446;6.854;2023-04-28T01:05:48;14.52;;;8.23;;
8694;SDS011;65580;49.446;6.854;2023-04-28T01:09:53;13.70;;;6.18;;
8694;SDS011;65580;49.446;6.854;2023-04-28T01:13:56;10.88;;;6.10;;
8694;SDS011;65580;49.446;6.854;2023-04-28T01:18:00;26.67;;;12.20;;
8694;SDS011;65580;49.446;6.854;2023-04-28T01:22:06;21.58;;;11.25;;
8694;SDS011;65580;49.446;6.854;2023-04-28T01:26:14;12.82;;;6.82;;
8694;SDS011;65580;49.446;6.854;2023-04-28T01:30:17;10.43;;;5.97;;
8694;SDS011;65580;49.446;6.854;2023-04-28T01:34:22;12.50;;;6.70;;
8694;SDS011;65580;49.446;6.854;2023-04-28T01:38:25;19.27;;;8.43;;
8694;SDS011;65580;49.446;6.854;2023-04-28T01:46:51;32.30;;;13.10;;
8694;SDS011;65580;49.446;6.854;2023-04-28T01:50:55;19.85;;;10.88;;
8694;SDS011;65580;49.446;6.854;2023-04-28T01:55:01;45.58;;;18.38;;
8694;SDS011;65580;49.446;6.854;2023-04-28T01:59:26;51.92;;;21.88;;
8694;SDS011;65580;49.446;6.854;2023-04-28T02:03:33;35.20;;;16.42;;
8694;SDS011;65580;49.446;6.854;2023-04-28T02:07:36;18.58;;;10.38;;
8694;SDS011;65580;49.446;6.854;2023-04-28T02:11:40;20.48;;;11.57;;
8694;SDS011;65580;49.446;6.854;2023-04-28T02:15:49;36.10;;;15.80;;
8694;SDS011;65580;49.446;6.854;2023-04-28T02:19:53;15.95;;;9.23;;
8694;SDS011;65580;49.446;6.854;2023-04-28T02:24:18;18.85;;;10.13;;
8694;SDS011;65580;49.446;6.854;2023-04-28T02:28:22;12.23;;;6.28;;
8694;SDS011;65580;49.446;6.854;2023-04-28T02:37:01;13.35;;;6.28;;
8694;SDS011;65580;49.446;6.854;2023-04-28T02:41:05;11.27;;;6.88;;
8694;SDS011;65580;49.446;6.854;2023-04-28T02:45:27;13.73;;;5.82;;
8694;SDS011;65580;49.446;6.854;2023-04-28T02:49:33;10.50;;;6.72;;
8694;SDS011;65580;49.446;6.854;2023-04-28T02:57:44;47.03;;;42.15;;
8694;SDS011;65580;49.446;6.854;2023-04-28T03:01:47;8.55;;;5.13;;
8694;SDS011;65580;49.446;6.854;2023-04-28T03:05:50;10.30;;;6.18;;
8694;SDS011;65580;49.446;6.854;2023-04-28T03:09:56;11.57;;;6.20;;
8694;SDS011;65580;49.446;6.854;2023-04-28T03:13:59;9.75;;;4.97;;
8694;SDS011;65580;49.446;6.854;2023-04-28T03:18:02;14.00;;;6.97;;
8694;SDS011;65580;49.446;6.854;2023-04-28T03:35:11;11.48;;;6.03;;
8694;SDS011;65580;49.446;6.854;2023-04-28T03:39:16;10.90;;;5.70;;
8694;SDS011;65580;49.446;6.854;2023-04-28T03:43:23;99.95;;;13.45;;
8694;SDS011;65580;49.446;6.854;2023-04-28T03:47:29;9.82;;;5.68;;
8694;SDS011;65580;49.446;6.854;2023-04-28T03:51:34;21.38;;;9.55;;
8694;SDS011;65580;49.446;6.854;2023-04-28T03:55:39;10.43;;;6.00;;
8694;SDS011;65580;49.446;6.854;2023-04-28T03:59:44;13.00;;;6.30;;
8694;SDS011;65580;49.446;6.854;2023-04-28T04:03:49;11.25;;;5.70;;
8694;SDS011;65580;49.446;6.854;2023-04-28T04:07:53;9.15;;;5.60;;
8694;SDS011;65580;49.446;6.854;2023-04-28T04:11:58;10.50;;;5.95;;
8694;SDS011;65580;49.446;6.854;2023-04-28T04:16:03;10.55;;;5.70;;
8694;SDS011;65580;49.446;6.854;2023-04-28T04:20:10;10.77;;;6.78;;
8694;SDS011;65580;49.446;6.854;2023-04-28T04:24:14;11.27;;;7.10;;
8694;SDS011;65580;49.446;6.854;2023-04-28T04:28:36;11.30;;;6.72;;
8694;SDS011;65580;49.446;6.854;2023-04-28T04:32:40;25.95;;;11.55;;
8694;SDS011;65580;49.446;6.854;2023-04-28T04:36:57;11.95;;;7.45;;
8694;SDS011;65580;49.446;6.854;2023-04-28T04:41:00;9.05;;;6.40;;
8694;SDS011;65580;49.446;6.854;2023-04-28T04:49:14;13.77;;;7.97;;
8694;SDS011;65580;49.446;6.854;2023-04-28T04:53:20;17.48;;;8.82;;
8694;SDS011;65580;49.446;6.854;2023-04-28T04:57:23;13.00;;;6.50;;
8694;SDS011;65580;49.446;6.854;2023-04-28T05:01:26;16.33;;;6.47;;
8694;SDS011;65580;49.446;6.854;2023-04-28T05:05:29;12.00;;;6.50;;
8694;SDS011;65580;49.446;6.854;2023-04-28T05:09:34;13.10;;;6.75;;
8694;SDS011;65580;49.446;6.854;2023-04-28T05:13:37;15.27;;;8.38;;
8694;SDS011;65580;49.446;6.854;2023-04-28T05:17:40;21.33;;;9.52;;
8694;SDS011;65580;49.446;6.854;2023-04-28T05:21:44;16.30;;;8.80;;
8694;SDS011;65580;49.446;6.854;2023-04-28T05:25:50;30.52;;;12.13;;
8694;SDS011;65580;49.446;6.854;2023-04-28T05:29:53;11.60;;;7.40;;
8694;SDS011;65580;49.446;6.854;2023-04-28T05:33:56;12.18;;;6.70;;
8694;SDS011;65580;49.446;6.854;2023-04-28T05:37:59;16.92;;;8.77;;
8694;SDS011;65580;49.446;6.854;2023-04-28T05:42:15;40.00;;;13.15;;
8694;SDS011;65580;49.446;6.854;2023-04-28T05:46:18;54.10;;;16.08;;
8694;SDS011;65580;49.446;6.854;2023-04-28T05:50:31;20.35;;;10.07;;
8694;SDS011;65580;49.446;6.854;2023-04-28T05:54:34;26.15;;;11.50;;
8694;SDS011;65580;49.446;6.854;2023-04-28T05:58:38;21.20;;;10.00;;
8694;SDS011;65580;49.446;6.854;2023-04-28T06:02:41;22.58;;;10.43;;
8694;SDS011;65580;49.446;6.854;2023-04-28T06:06:44;45.20;;;25.65;;
8694;SDS011;65580;49.446;6.854;2023-04-28T06:10:47;17.35;;;8.85;;
8694;SDS011;65580;49.446;6.854;2023-04-28T06:14:52;36.42;;;12.98;;
8694;SDS011;65580;49.446;6.854;2023-04-28T06:18:55;39.97;;;12.93;;
8694;SDS011;65580;49.446;6.854;2023-04-28T06:27:28;38.33;;;13.80;;
8694;SDS011;65580;49.446;6.854;2023-04-28T06:31:34;14.75;;;8.88;;
8694;SDS011;65580;49.446;6.854;2023-04-28T06:35:37;12.07;;;7.40;;
8694;SDS011;65580;49.446;6.854;2023-04-28T06:39:40;21.92;;;10.80;;
8694;SDS011;65580;49.446;6.854;2023-04-28T06:43:43;12.02;;;7.30;;
8694;SDS011;65580;49.446;6.854;2023-04-28T06:47:48;9.77;;;6.13;;
8694;SDS011;65580;49.446;6.854;2023-04-28T06:51:53;8.10;;;5.03;;
8694;SDS011;65580;49.446;6.854;2023-04-28T06:55:56;8.02;;;5.15;;
8694;SDS011;65580;49.446;6.854;2023-04-28T06:59:59;8.55;;;5.07;;
8694;SDS011;65580;49.446;6.854;2023-04-28T07:04:04;8.57;;;4.95;;
8694;SDS011;65580;49.446;6.854;2023-04-28T07:08:09;8.70;;;5.57;;
8694;SDS011;65580;49.446;6.854;2023-04-28T07:12:13;11.93;;;6.88;;
8694;SDS011;65580;49.446;6.854;2023-04-28T07:16:16;10.18;;;6.20;;
8694;SDS011;65580;49.446;6.854;2023-04-28T07:20:21;16.02;;;8.10;;
8694;SDS011;65580;49.446;6.854;2023-04-28T07:24:24;13.27;;;7.03;;
8694;SDS011;65580;49.446;6.854;2023-04-28T07:28:28;13.02;;;6.88;;
8694;SDS011;65580;49.446;6.854;2023-04-28T07:32:32;8.85;;;5.50;;
8694;SDS011;65580;49.446;6.854;2023-04-28T07:36:40;7.85;;;5.00;;
8694;SDS011;65580;49.446;6.854;2023-04-28T07:40:43;14.48;;;7.88;;
8694;SDS011;65580;49.446;6.854;2023-04-28T07:44:46;15.88;;;7.95;;
8694;SDS011;65580;49.446;6.854;2023-04-28T07:48:49;10.52;;;5.07;;
8694;SDS011;65580;49.446;6.854;2023-04-28T07:52:54;6.75;;;4.38;;
8694;SDS011;65580;49.446;6.854;2023-04-28T07:56:58;9.60;;;6.07;;
8694;SDS011;65580;49.446;6.854;2023-04-28T08:05:37;10.55;;;5.30;;
8694;SDS011;65580;49.446;6.854;2023-04-28T08:13:47;7.90;;;5.05;;
8694;SDS011;65580;49.446;6.854;2023-04-28T08:18:00;8.02;;;5.13;;
8694;SDS011;65580;49.446;6.854;2023-04-28T08:22:03;8.05;;;4.88;;
8694;SDS011;65580;49.446;6.854;2023-04-28T08:26:09;6.88;;;4.95;;
8694;SDS011;65580;49.446;6.854;2023-04-28T08:30:12;11.20;;;7.20;;
8694;SDS011;65580;49.446;6.854;2023-04-28T08:34:15;14.75;;;8.43;;
8694;SDS011;65580;49.446;6.854;2023-04-28T08:42:25;7.78;;;5.18;;
8694;SDS011;65580;49.446;6.854;2023-04-28T08:46:30;11.18;;;7.53;;
8694;SDS011;65580;49.446;6.854;2023-04-28T08:50:34;8.32;;;5.20;;
8694;SDS011;65580;49.446;6.854;2023-04-28T08:54:39;9.60;;;5.68;;
8694;SDS011;65580;49.446;6.854;2023-04-28T08:58:44;7.32;;;4.97;;
8694;SDS011;65580;49.446;6.854;2023-04-28T09:02:47;11.48;;;6.53;;
8694;SDS011;65580;49.446;6.854;2023-04-28T09:06:50;24.70;;;10.68;;
8694;SDS011;65580;49.446;6.854;2023-04-28T09:11:10;9.75;;;5.78;;
8694;SDS011;65580;49.446;6.854;2023-04-28T09:15:29;11.75;;;7.30;;
8694;SDS011;65580;49.446;6.854;2023-04-28T09:19:35;9.57;;;5.93;;
8694;SDS011;65580;49.446;6.854;2023-04-28T09:23:45;9.77;;;6.28;;
8694;SDS011;65580;49.446;6.854;2023-04-28T09:28:02;9.13;;;5.55;;
8694;SDS011;65580;49.446;6.854;2023-04-28T09:32:23;8.05;;;5.00;;
8694;SDS011;65580;49.446;6.854;2023-04-28T09:36:28;5.57;;;2.00;;
8694;SDS011;65580;49.446;6.854;2023-04-28T09:40:32;0.77;;;0.77;;
8694;SDS011;65580;49.446;6.854;2023-04-28T09:44:35;1.42;;;0.93;;
8694;SDS011;65580;49.446;6.854;2023-04-28T09:48:39;4.68;;;1.55;;
8694;SDS011;65580;49.446;6.854;2023-04-28T09:52:44;1.33;;;0.93;;
8694;SDS011;65580;49.446;6.854;2023-04-28T09:56:58;2.00;;;1.10;;
8694;SDS011;65580;49.446;6.854;2023-04-28T10:01:01;2.00;;;1.42;;
8694;SDS011;65580;49.446;6.854;2023-04-28T10:05:08;2.78;;;1.17;;
8694;SDS011;65580;49.446;6.854;2023-04-28T10:09:12;1.48;;;1.38;;
8694;SDS011;65580;49.446;6.854;2023-04-28T10:13:16;6.65;;;1.30;;
8694;SDS011;65580;49.446;6.854;2023-04-28T10:17:21;4.65;;;2.00;;
8694;SDS011;65580;49.446;6.854;2023-04-28T10:21:32;1.63;;;1.30;;
8694;SDS011;65580;49.446;6.854;2023-04-28T10:25:37;2.00;;;1.20;;
8694;SDS011;65580;49.446;6.854;2023-04-28T10:29:41;3.63;;;1.20;;
8694;SDS011;65580;49.446;6.854;2023-04-28T10:33:45;4.32;;;1.90;;
8694;SDS011;65580;49.446;6.854;2023-04-28T10:38:06;5.13;;;1.50;;
8694;SDS011;65580;49.446;6.854;2023-04-28T10:47:01;2.08;;;0.98;;
8694;SDS011;65580;49.446;6.854;2023-04-28T10:55:39;1.52;;;1.13;;
8694;SDS011;65580;49.446;6.854;2023-04-28T10:59:43;1.88;;;1.05;;
8694;SDS011;65580;49.446;6.854;2023-04-28T11:03:47;1.15;;;0.80;;
8694;SDS011;65580;49.446;6.854;2023-04-28T11:12:30;1.52;;;0.60;;
8694;SDS011;65580;49.446;6.854;2023-04-28T11:16:33;0.65;;;0.60;;
8694;SDS011;65580;49.446;6.854;2023-04-28T11:20:52;1.98;;;0.60;;
8694;SDS011;65580;49.446;6.854;2023-04-28T11:25:00;1.40;;;0.63;;
8694;SDS011;65580;49.446;6.854;2023-04-28T11:29:06;2.03;;;0.80;;
8694;SDS011;65580;49.446;6.854;2023-04-28T11:33:09;2.13;;;0.77;;
8694;SDS011;65580;49.446;6.854;2023-04-28T11:37:14;1.25;;;0.70;;
8694;SDS011;65580;49.446;6.854;2023-04-28T11:41:17;0.82;;;0.70;;
8694;SDS011;65580;49.446;6.854;2023-04-28T11:45:25;1.73;;;0.80;;
8694;SDS011;65580;49.446;6.854;2023-04-28T11:53:54;2.20;;;0.80;;
8694;SDS011;65580;49.446;6.854;2023-04-28T12:02:24;2.28;;;0.73;;
8694;SDS011;65580;49.446;6.854;2023-04-28T12:06:30;1.60;;;0.80;;
8694;SDS011;65580;49.446;6.854;2023-04-28T12:10:34;0.52;;;0.43;;
8694;SDS011;65580;49.446;6.854;2023-04-28T12:14:52;1.77;;;0.60;;
8694;SDS011;65580;49.446;6.854;2023-04-28T12:18:58;2.20;;;1.45;;
8694;SDS011;65580;49.446;6.854;2023-04-28T12:23:09;1.63;;;0.77;;
8694;SDS011;65580;49.446;6.854;2023-04-28T12:27:13;0.80;;;0.50;;
8694;SDS011;65580;49.446;6.854;2023-04-28T12:31:17;1.50;;;0.60;;
8694;SDS011;65580;49.446;6.854;2023-04-28T12:35:24;0.52;;;0.50;;
8694;SDS011;65580;49.446;6.854;2023-04-28T12:39:28;1.55;;;0.90;;
8694;SDS011;65580;49.446;6.854;2023-04-28T12:43:31;2.17;;;0.70;;
8694;SDS011;65580;49.446;6.854;2023-04-28T12:47:35;0.68;;;0.68;;
8694;SDS011;65580;49.446;6.854;2023-04-28T12:51:40;1.73;;;0.80;;
8694;SDS011;65580;49.446;6.854;2023-04-28T12:56:01;1.10;;;0.90;;
8694;SDS011;65580;49.446;6.854;2023-04-28T13:00:05;0.50;;;0.50;;
8694;SDS011;65580;49.446;6.854;2023-04-28T13:04:09;4.75;;;0.90;;
8694;SDS011;65580;49.446;6.854;2023-04-28T13:08:14;0.57;;;0.57;;
8694;SDS011;65580;49.446;6.854;2023-04-28T13:12:17;1.33;;;0.50;;
8694;SDS011;65580;49.446;6.854;2023-04-28T13:16:22;1.25;;;0.60;;
8694;SDS011;65580;49.446;6.854;2023-04-28T13:20:29;2.00;;;0.60;;
8694;SDS011;65580;49.446;6.854;2023-04-28T13:24:34;0.52;;;0.50;;
8694;SDS011;65580;49.446;6.854;2023-04-28T13:28:37;1.85;;;0.80;;
8694;SDS011;65580;49.446;6.854;2023-04-28T13:32:40;1.90;;;0.70;;
8694;SDS011;65580;49.446;6.854;2023-04-28T13:36:44;1.10;;;0.65;;
8694;SDS011;65580;49.446;6.854;2023-04-28T13:40:49;2.08;;;0.60;;
8694;SDS011;65580;49.446;6.854;2023-04-28T13:44:53;2.42;;;0.90;;
8694;SDS011;65580;49.446;6.854;2023-04-28T13:48:56;2.40;;;0.82;;
8694;SDS011;65580;49.446;6.854;2023-04-28T13:52:59;7.70;;;3.35;;
8694;SDS011;65580;49.446;6.854;2023-04-28T13:57:04;4.00;;;0.93;;
8694;SDS011;65580;49.446;6.854;2023-04-28T14:01:07;1.83;;;0.52;;
8694;SDS011;65580;49.446;6.854;2023-04-28T14:05:10;0.75;;;0.60;;
8694;SDS011;65580;49.446;6.854;2023-04-28T14:09:13;2.88;;;0.85;;
8694;SDS011;65580;49.446;6.854;2023-04-28T14:13:28;3.78;;;0.98;;
8694;SDS011;65580;49.446;6.854;2023-04-28T14:17:31;3.45;;;1.05;;
8694;SDS011;65580;49.446;6.854;2023-04-28T14:21:35;6.57;;;3.13;;
8694;SDS011;65580;49.446;6.854;2023-04-28T14:29:44;2.67;;;1.33;;
8694;SDS011;65580;49.446;6.854;2023-04-28T14:33:48;0.70;;;0.70;;
8694;SDS011;65580;49.446;6.854;2023-04-28T14:37:51;0.98;;;0.50;;
8694;SDS011;65580;49.446;6.854;2023-04-28T14:42:01;4.00;;;0.90;;
8694;SDS011;65580;49.446;6.854;2023-04-28T14:46:05;1.95;;;0.50;;
8694;SDS011;65580;49.446;6.854;2023-04-28T14:50:08;1.33;;;0.40;;
8694;SDS011;65580;49.446;6.854;2023-04-28T14:54:15;1.42;;;0.47;;
8694;SDS011;65580;49.446;6.854;2023-04-28T14:58:18;2.40;;;0.57;;
8694;SDS011;65580;49.446;6.854;2023-04-28T15:02:23;0.50;;;0.40;;
8694;SDS011;65580;49.446;6.854;2023-04-28T15:06:37;1.25;;;0.50;;
8694;SDS011;65580;49.446;6.854;2023-04-28T15:10:40;2.53;;;0.70;;
8694;SDS011;65580;49.446;6.854;2023-04-28T15:14:53;1.67;;;0.90;;
8694;SDS011;65580;49.446;6.854;2023-04-28T15:18:59;2.67;;;0.80;;
8694;SDS011;65580;49.446;6.854;2023-04-28T15:23:04;3.03;;;0.70;;
8694;SDS011;65580;49.446;6.854;2023-04-28T15:27:09;0.70;;;0.60;;
8694;SDS011;65580;49.446;6.854;2023-04-28T15:31:12;2.13;;;0.90;;
8694;SDS011;65580;49.446;6.854;2023-04-28T15:35:17;1.25;;;1.00;;
8694;SDS011;65580;49.446;6.854;2023-04-28T15:39:20;2.50;;;0.70;;
8694;SDS011;65580;49.446;6.854;2023-04-28T15:43:24;3.45;;;0.90;;
8694;SDS011;65580;49.446;6.854;2023-04-28T15:47:27;1.95;;;1.20;;
8694;SDS011;65580;49.446;6.854;2023-04-28T15:51:32;4.03;;;0.95;;
8694;SDS011;65580;49.446;6.854;2023-04-28T15:55:35;1.00;;;0.90;;
8694;SDS011;65580;49.446;6.854;2023-04-28T15:59:39;2.13;;;0.90;;
8694;SDS011;65580;49.446;6.854;2023-04-28T16:03:49;1.38;;;0.80;;
8694;SDS011;65580;49.446;6.854;2023-04-28T16:07:54;1.42;;;0.80;;
8694;SDS011;65580;49.446;6.854;2023-04-28T16:11:57;3.72;;;1.00;;
8694;SDS011;65580;49.446;6.854;2023-04-28T16:16:05;1.83;;;0.75;;
8694;SDS011;65580;49.446;6.854;2023-04-28T16:20:28;3.70;;;1.13;;
8694;SDS011;65580;49.446;6.854;2023-04-28T16:24:33;1.27;;;0.95;;
8694;SDS011;65580;49.446;6.854;2023-04-28T16:28:39;1.65;;;0.70;;
8694;SDS011;65580;49.446;6.854;2023-04-28T16:32:42;2.65;;;0.75;;
8694;SDS011;65580;49.446;6.854;2023-04-28T16:36:46;1.13;;;0.70;;
8694;SDS011;65580;49.446;6.854;2023-04-28T16:40:50;3.20;;;0.90;;
8694;SDS011;65580;49.446;6.854;2023-04-28T16:45:07;2.05;;;0.98;;
8694;SDS011;65580;49.446;6.854;2023-04-28T16:49:11;1.23;;;0.70;;
8694;SDS011;65580;49.446;6.854;2023-04-28T16:57:18;1.67;;;0.75;;
8694;SDS011;65580;49.446;6.854;2023-04-28T17:01:21;1.75;;;1.20;;
8694;SDS011;65580;49.446;6.854;2023-04-28T17:09:41;2.08;;;0.80;;
8694;SDS011;65580;49.446;6.854;2023-04-28T17:13:47;4.07;;;0.82;;
8694;SDS011;65580;49.446;6.854;2023-04-28T17:17:50;3.00;;;0.63;;
8694;SDS011;65580;49.446;6.854;2023-04-28T17:21:59;5.55;;;1.00;;
8694;SDS011;65580;49.446;6.854;2023-04-28T17:26:02;3.60;;;0.98;;
8694;SDS011;65580;49.446;6.854;2023-04-28T17:34:47;3.70;;;0.88;;
8694;SDS011;65580;49.446;6.854;2023-04-28T17:38:50;5.88;;;0.88;;
8694;SDS011;65580;49.446;6.854;2023-04-28T17:42:53;1.73;;;0.90;;
8694;SDS011;65580;49.446;6.854;2023-04-28T17:51:20;1.73;;;1.10;;
8694;SDS011;65580;49.446;6.854;2023-04-28T17:55:23;1.40;;;1.10;;
8694;SDS011;65580;49.446;6.854;2023-04-28T17:59:35;0.93;;;0.90;;
8694;SDS011;65580;49.446;6.854;2023-04-28T18:03:43;3.17;;;1.10;;
8694;SDS011;65580;49.446;6.854;2023-04-28T18:07:54;2.55;;;0.90;;
8694;SDS011;65580;49.446;6.854;2023-04-28T18:12:01;1.10;;;1.00;;
8694;SDS011;65580;49.446;6.854;2023-04-28T18:16:13;1.38;;;0.90;;
8694;SDS011;65580;49.446;6.854;2023-04-28T18:20:28;1.20;;;1.10;;
8694;SDS011;65580;49.446;6.854;2023-04-28T18:28:40;10.52;;;1.45;;
8694;SDS011;65580;49.446;6.854;2023-04-28T18:36:52;2.33;;;1.30;;
8694;SDS011;65580;49.446;6.854;2023-04-28T18:40:58;7.68;;;1.40;;
8694;SDS011;65580;49.446;6.854;2023-04-28T18:49:23;5.72;;;1.40;;
8694;SDS011;65580;49.446;6.854;2023-04-28T18:53:29;4.43;;;1.30;;
8694;SDS011;65580;49.446;6.854;2023-04-28T19:02:02;4.63;;;1.73;;
8694;SDS011;65580;49.446;6.854;2023-04-28T19:06:05;5.68;;;1.65;;
8694;SDS011;65580;49.446;6.854;2023-04-28T19:10:10;8.52;;;1.83;;
8694;SDS011;65580;49.446;6.854;2023-04-28T19:14:14;4.20;;;1.73;;
8694;SDS011;65580;49.446;6.854;2023-04-28T19:18:18;5.63;;;3.33;;
8694;SDS011;65580;49.446;6.854;2023-04-28T19:22:36;4.82;;;2.72;;
8694;SDS011;65580;49.446;6.854;2023-04-28T19:26:44;5.50;;;2.08;;
8694;SDS011;65580;49.446;6.854;2023-04-28T19:30:47;6.88;;;1.60;;
8694;SDS011;65580;49.446;6.854;2023-04-28T19:38:53;2.05;;;1.35;;
8694;SDS011;65580;49.446;6.854;2023-04-28T19:43:12;2.47;;;1.50;;
8694;SDS011;65580;49.446;6.854;2023-04-28T19:47:21;2.65;;;1.40;;
8694;SDS011;65580;49.446;6.854;2023-04-28T19:51:32;1.67;;;1.02;;
8694;SDS011;65580;49.446;6.854;2023-04-28T19:55:47;1.20;;;1.00;;
8694;SDS011;65580;49.446;6.854;2023-04-28T19:59:59;3.10;;;1.23;;
8694;SDS011;65580;49.446;6.854;2023-04-28T20:04:09;3.80;;;2.05;;
8694;SDS011;65580;49.446;6.854;2023-04-28T20:08:22;2.50;;;1.38;;
8694;SDS011;65580;49.446;6.854;2023-04-28T20:12:37;1.48;;;1.30;;
8694;SDS011;65580;49.446;6.854;2023-04-28T20:16:57;19.80;;;2.92;;
8694;SDS011;65580;49.446;6.854;2023-04-28T20:21:00;5.32;;;1.33;;
8694;SDS011;65580;49.446;6.854;2023-04-28T20:25:03;4.50;;;1.40;;
8694;SDS011;65580;49.446;6.854;2023-04-28T20:29:07;3.17;;;1.20;;
8694;SDS011;65580;49.446;6.854;2023-04-28T20:33:11;2.67;;;1.35;;
8694;SDS011;65580;49.446;6.854;2023-04-28T20:37:14;9.55;;;2.30;;
8694;SDS011;65580;49.446;6.854;2023-04-28T20:41:17;93.20;;;3.83;;
8694;SDS011;65580;49.446;6.854;2023-04-28T20:45:20;3.00;;;1.70;;
8694;SDS011;65580;49.446;6.854;2023-04-28T20:49:24;6.55;;;1.48;;
8694;SDS011;65580;49.446;6.854;2023-04-28T20:53:27;7.00;;;2.78;;
8694;SDS011;65580;49.446;6.854;2023-04-28T20:57:32;5.45;;;2.25;;
8694;SDS011;65580;49.446;6.854;2023-04-28T21:01:35;3.03;;;1.83;;
8694;SDS011;65580;49.446;6.854;2023-04-28T21:05:39;5.97;;;2.13;;
8694;SDS011;65580;49.446;6.854;2023-04-28T21:09:42;4.20;;;2.13;;
8694;SDS011;65580;49.446;6.854;2023-04-28T21:13:44;4.57;;;2.10;;
8694;SDS011;65580;49.446;6.854;2023-04-28T21:17:47;5.97;;;2.30;;
8694;SDS011;65580;49.446;6.854;2023-04-28T21:21:51;4.43;;;2.35;;
8694;SDS011;65580;49.446;6.854;2023-04-28T21:25:54;68.93;;;4.60;;
8694;SDS011;65580;49.446;6.854;2023-04-28T21:29:57;4.13;;;1.90;;
8694;SDS011;65580;49.446;6.854;2023-04-28T21:34:00;6.68;;;1.60;;
8694;SDS011;65580;49.446;6.854;2023-04-28T21:38:04;3.88;;;2.20;;
8694;SDS011;65580;49.446;6.854;2023-04-28T21:42:08;6.10;;;2.75;;
8694;SDS011;65580;49.446;6.854;2023-04-28T21:46:10;7.05;;;3.58;;
8694;SDS011;65580;49.446;6.854;2023-04-28T21:50:13;153.68;;;6.50;;
8694;SDS011;65580;49.446;6.854;2023-04-28T21:54:17;4.18;;;2.20;;
8694;SDS011;65580;49.446;6.854;2023-04-28T21:58:20;5.35;;;2.88;;
8694;SDS011;65580;49.446;6.854;2023-04-28T22:02:23;91.30;;;6.57;;
8694;SDS011;65580;49.446;6.854;2023-04-28T22:06:26;8.07;;;3.33;;
8694;SDS011;65580;49.446;6.854;2023-04-28T22:10:30;12.63;;;3.78;;
8694;SDS011;65580;49.446;6.854;2023-04-28T22:14:34;10.20;;;3.67;;
8694;SDS011;65580;49.446;6.854;2023-04-28T22:18:41;7.10;;;2.78;;
8694;SDS011;65580;49.446;6.854;2023-04-28T22:22:44;10.00;;;3.15;;
8694;SDS011;65580;49.446;6.854;2023-04-28T22:26:48;6.47;;;2.20;;
8694;SDS011;65580;49.446;6.854;2023-04-28T22:30:51;3.05;;;1.92;;
8694;SDS011;65580;49.446;6.854;2023-04-28T22:34:54;3.75;;;1.90;;
8694;SDS011;65580;49.446;6.854;2023-04-28T22:38:56;7.10;;;2.47;;
8694;SDS011;65580;49.446;6.854;2023-04-28T22:43:00;19.23;;;5.90;;
8694;SDS011;65580;49.446;6.854;2023-04-28T22:47:03;5.07;;;3.15;;
8694;SDS011;65580;49.446;6.854;2023-04-28T22:51:06;5.05;;;3.08;;
8694;SDS011;65580;49.446;6.854;2023-04-28T22:55:09;5.18;;;2.70;;
8694;SDS011;65580;49.446;6.854;2023-04-28T22:59:14;14.05;;;5.28;;
8694;SDS011;65580;49.446;6.854;2023-04-28T23:03:16;5.30;;;2.70;;
8694;SDS011;65580;49.446;6.854;2023-04-28T23:07:19;8.43;;;3.20;;
8694;SDS011;65580;49.446;6.854;2023-04-28T23:11:22;5.78;;;2.90;;
8694;SDS011;65580;49.446;6.854;2023-04-28T23:15:26;11.90;;;4.28;;
8694;SDS011;65580;49.446;6.854;2023-04-28T23:19:29;4.93;;;2.53;;
8694;SDS011;65580;49.446;6.854;2023-04-28T23:23:32;9.38;;;4.00;;
8694;SDS011;65580;49.446;6.854;2023-04-28T23:27:35;4.55;;;2.78;;
8694;SDS011;65580;49.446;6.854;2023-04-28T23:31:39;4.25;;;2.40;;
8694;SDS011;65580;49.446;6.854;2023-04-28T23:35:42;1.58;;;1.38;;
8694;SDS011;65580;49.446;6.854;2023-04-28T23:39:44;1.33;;;0.98;;
8694;SDS011;65580;49.446;6.854;2023-04-28T23:43:47;1.58;;;1.13;;
8694;SDS011;65580;49.446;6.854;2023-04-28T23:47:51;1.27;;;1.10;;
8694;SDS011;65580;49.446;6.854;2023-04-28T23:51:54;1.65;;;1.13;;
8694;SDS011;65580;49.446;6.854;2023-04-28T23:55:57;3.80;;;1.50;;
